Time;durP1;ratioP1;P1;durP2;ratioP2;P2;SDS_P1;SDS_P2;PMS_P1;PMS_P2;Temp;Humidity;BMP_temperature;BMP_pressure;BME280_temperature;BME280_humidity;BME280_pressure;Samples;Min_cycle;Max_cycle;Signal;HPM_P1;HPM_P2
2022/09/09 00:01:32;;;;;;;0.30;0.20;;;;;;;28.18;nan;99030.09;5110908;28;20130;-56
2022/09/09 00:04:14;;;;;;;0.20;0.20;;;;;;;28.18;nan;99032.91;5098569;28;20555;-58
2022/09/09 00:07:06;;;;;;;0.73;0.20;;;;;;;28.19;nan;99028.09;5111789;28;20130;-56
2022/09/09 00:09:41;;;;;;;0.30;0.30;;;;;;;28.16;nan;99029.75;5018255;28;20277;-58
2022/09/09 00:12:23;;;;;;;0.57;0.30;;;;;;;28.17;nan;99036.16;5021794;28;20116;-58
2022/09/09 00:14:59;;;;;;;1.08;0.30;;;;;;;28.15;nan;99033.00;5024739;28;20068;-58
2022/09/09 00:17:35;;;;;;;0.20;0.20;;;;;;;28.15;nan;99033.00;5018136;28;20046;-58
2022/09/09 00:20:16;;;;;;;0.30;0.30;;;;;;;28.16;nan;99037.41;5020747;28;20109;-58
2022/09/09 00:22:50;;;;;;;0.40;0.40;;;;;;;28.17;nan;99039.78;5024978;28;20045;-57
2022/09/09 00:25:34;;;;;;;0.20;0.20;;;;;;;28.15;nan;99038.63;5025801;28;20611;-58
2022/09/09 00:27:59;;;;;;;0.20;0.20;;;;;;;28.15;nan;99031.00;5017912;28;20119;-58
2022/09/09 00:30:31;;;;;;;0.10;0.10;;;;;;;28.17;nan;99033.34;5011081;28;20073;-57
2022/09/09 00:33:11;;;;;;;0.20;0.20;;;;;;;28.16;nan;99034.59;5015467;28;20037;-57
2022/09/09 00:35:39;;;;;;;0.25;0.20;;;;;;;28.17;nan;99030.53;5026090;28;20200;-58
2022/09/09 00:38:13;;;;;;;0.22;0.20;;;;;;;28.14;nan;99029.38;5024736;28;20449;-58
2022/09/09 00:40:49;;;;;;;0.20;0.20;;;;;;;28.16;nan;99038.19;5010188;28;20383;-56
2022/09/09 00:43:27;;;;;;;0.25;0.25;;;;;;;28.15;nan;99033.00;5011147;28;20434;-56
2022/09/09 00:45:55;;;;;;;0.45;0.30;;;;;;;28.17;nan;99038.97;5041441;28;20311;-57
2022/09/09 00:48:26;;;;;;;0.20;0.13;;;;;;;28.13;nan;99041.84;5110882;28;20054;-56
2022/09/09 00:51:00;;;;;;;0.20;0.20;;;;;;;28.13;nan;99041.06;5111293;28;20043;-56
2022/09/09 00:53:59;;;;;;;0.30;0.30;;;;;;;28.12;nan;99042.28;5110883;28;20060;-58
2022/09/09 00:56:41;;;;;;;0.10;0.10;;;;;;;28.14;nan;99042.66;5110348;28;20065;-57
2022/09/09 00:59:10;;;;;;;0.68;0.30;;;;;;;28.14;nan;99043.44;5110914;28;20415;-58
2022/09/09 01:01:35;;;;;;;0.35;0.32;;;;;;;28.11;nan;99043.53;5110911;28;20035;-57
2022/09/09 01:04:08;;;;;;;1.38;0.47;;;;;;;28.09;nan;99034.75;5110944;28;20031;-58
2022/09/09 01:06:36;;;;;;;0.20;0.20;;;;;;;28.09;nan;99031.94;5111227;28;20043;-56
2022/09/09 01:09:53;;;;;;;0.30;0.20;;;;;;;28.09;nan;99027.09;5111132;28;20032;-57
2022/09/09 01:12:41;;;;;;;0.20;0.17;;;;;;;28.08;nan;99035.97;5085961;28;20107;-58
2022/09/09 01:15:34;;;;;;;0.10;0.10;;;;;;;28.08;nan;99039.56;5105613;28;20047;-56
2022/09/09 01:18:10;;;;;;;0.90;0.20;;;;;;;28.07;nan;99037.97;5106281;28;20048;-56
2022/09/09 01:21:04;;;;;;;0.28;0.20;;;;;;;28.07;nan;99042.78;5110820;28;20557;-56
2022/09/09 01:23:54;;;;;;;0.20;0.20;;;;;;;28.06;nan;99044.81;5100750;28;20143;-56
2022/09/09 01:26:26;;;;;;;0.22;0.20;;;;;;;28.06;nan;99042.00;5110725;28;20035;-56
2022/09/09 01:28:52;;;;;;;0.40;0.22;;;;;;;28.05;nan;99034.81;5110670;28;20511;-58
2022/09/09 01:31:41;;;;;;;0.30;0.30;;;;;;;28.06;nan;99038.41;5110676;28;20085;-56
2022/09/09 01:34:14;;;;;;;0.22;0.20;;;;;;;28.07;nan;99028.75;5110535;28;20080;-56
2022/09/09 01:36:50;;;;;;;0.10;0.10;;;;;;;28.06;nan;99032.78;5101264;28;20106;-58
2022/09/09 01:39:16;;;;;;;0.30;0.20;;;;;;;28.06;nan;99032.78;5103899;28;20044;-56
2022/09/09 01:41:42;;;;;;;0.20;0.17;;;;;;;28.07;nan;99031.56;5090560;28;20492;-58
2022/09/09 01:44:09;;;;;;;0.20;0.20;;;;;;;28.07;nan;99039.97;5090128;28;20099;-56
2022/09/09 01:46:35;;;;;;;0.20;0.20;;;;;;;28.06;nan;99039.19;5090196;28;20044;-58
2022/09/09 01:49:03;;;;;;;0.20;0.20;;;;;;;28.04;nan;99038.06;5089804;28;20068;-58
2022/09/09 01:51:30;;;;;;;0.20;0.17;;;;;;;28.04;nan;99043.69;5076006;28;20040;-56
2022/09/09 01:53:55;;;;;;;0.40;0.20;;;;;;;28.03;nan;99048.50;5089996;28;20043;-56
2022/09/09 01:56:51;;;;;;;0.50;0.30;;;;;;;28.02;nan;99048.94;5089500;28;20039;-57
2022/09/09 01:59:35;;;;;;;0.20;0.20;;;;;;;28.01;nan;99044.56;5089694;28;20048;-56
2022/09/09 02:02:11;;;;;;;0.20;0.15;;;;;;;28.01;nan;99044.56;5089576;28;20463;-57
2022/09/09 02:04:41;;;;;;;0.20;0.20;;;;;;;27.97;nan;99048.22;5089512;28;20055;-57
2022/09/09 02:07:28;;;;;;;0.22;0.20;;;;;;;27.97;nan;99050.25;5089704;28;20047;-56
2022/09/09 02:10:26;;;;;;;0.30;0.28;;;;;;;28.00;nan;99051.38;5089480;28;20052;-58
2022/09/09 02:13:03;;;;;;;0.30;0.20;;;;;;;27.98;nan;99054.63;5089841;28;20524;-58
2022/09/09 02:15:52;;;;;;;0.20;0.20;;;;;;;27.98;nan;99051.81;5089942;28;20048;-58
2022/09/09 02:18:26;;;;;;;0.10;0.10;;;;;;;27.98;nan;99052.59;5089747;28;20043;-57
2022/09/09 02:20:53;;;;;;;0.22;0.20;;;;;;;27.96;nan;99049.44;5089488;28;20138;-57
2022/09/09 02:23:19;;;;;;;0.25;0.20;;;;;;;27.97;nan;99059.47;5088941;28;20048;-58
2022/09/09 02:25:46;;;;;;;0.20;0.20;;;;;;;27.97;nan;99059.47;5088946;28;20408;-58
2022/09/09 02:28:15;;;;;;;0.28;0.22;;;;;;;27.95;nan;99059.13;5089493;28;20047;-58
2022/09/09 02:30:46;;;;;;;0.20;0.20;;;;;;;27.95;nan;99050.69;5089120;28;20449;-58
2022/09/09 02:33:14;;;;;;;0.22;0.20;;;;;;;27.95;nan;99055.50;5089386;28;20407;-58
2022/09/09 02:35:43;;;;;;;0.38;0.30;;;;;;;27.94;nan;99049.09;5088956;28;20044;-57
2022/09/09 02:38:13;;;;;;;0.30;0.30;;;;;;;27.95;nan;99042.25;5089345;28;20044;-58
2022/09/09 02:40:38;;;;;;;0.50;0.30;;;;;;;27.95;nan;99047.88;5089345;28;20052;-58
2022/09/09 02:43:06;;;;;;;0.22;0.22;;;;;;;27.96;nan;99045.84;5089057;28;20614;-58
2022/09/09 02:46:11;;;;;;;0.10;0.10;;;;;;;27.94;nan;99051.13;5089000;28;20074;-56
2022/09/09 02:48:46;;;;;;;0.20;0.20;;;;;;;27.91;nan;99047.13;5079833;28;20047;-57
2022/09/09 02:51:37;;;;;;;0.30;0.20;;;;;;;27.90;nan;99044.75;5075788;28;20039;-58
2022/09/09 02:54:30;;;;;;;0.47;0.30;;;;;;;27.90;nan;99044.75;5088795;28;20498;-56
2022/09/09 02:57:11;;;;;;;0.20;0.20;;;;;;;27.88;nan;99048.00;5078857;28;20083;-56
2022/09/09 02:59:37;;;;;;;0.22;0.20;;;;;;;27.90;nan;99039.94;5088916;28;20102;-58
2022/09/09 03:02:03;;;;;;;0.20;0.15;;;;;;;27.84;nan;99041.66;5089003;28;20056;-58
2022/09/09 03:04:30;;;;;;;0.20;0.20;;;;;;;27.87;nan;99048.44;5088902;28;20536;-58
2022/09/09 03:06:57;;;;;;;0.30;0.20;;;;;;;27.87;nan;99045.63;5088793;28;20044;-58
2022/09/09 03:09:22;;;;;;;0.20;0.20;;;;;;;27.89;nan;99048.81;5088918;28;20040;-58
2022/09/09 03:11:49;;;;;;;0.20;0.20;;;;;;;27.88;nan;99044.41;5088772;28;20081;-57
2022/09/09 03:14:15;;;;;;;0.50;0.28;;;;;;;27.87;nan;99046.44;5088579;28;20098;-56
2022/09/09 03:16:42;;;;;;;0.47;0.20;;;;;;;27.89;nan;99049.59;5088657;28;20409;-57
2022/09/09 03:19:07;;;;;;;0.25;0.25;;;;;;;27.91;nan;99051.97;5088627;28;20040;-58
2022/09/09 03:21:33;;;;;;;0.10;0.10;;;;;;;27.88;nan;99048.00;5088264;28;20143;-58
2022/09/09 03:23:58;;;;;;;0.35;0.20;;;;;;;27.86;nan;99050.47;5087780;28;20055;-57
2022/09/09 03:26:24;;;;;;;0.40;0.22;;;;;;;27.88;nan;99050.81;5088664;28;20186;-58
2022/09/09 03:28:52;;;;;;;0.30;0.30;;;;;;;27.85;nan;99054.47;5088640;28;20044;-57
2022/09/09 03:31:19;;;;;;;0.30;0.20;;;;;;;27.84;nan;99061.31;5088439;28;20033;-58
2022/09/09 03:33:44;;;;;;;0.28;0.25;;;;;;;27.87;nan;99063.28;5088495;28;20565;-58
2022/09/09 03:36:10;;;;;;;0.20;0.20;;;;;;;27.86;nan;99050.47;5090172;28;20052;-56
2022/09/09 03:38:36;;;;;;;0.15;0.15;;;;;;;27.87;nan;99057.66;5092085;28;20063;-57
2022/09/09 03:41:01;;;;;;;0.20;0.20;;;;;;;27.88;nan;99064.88;5091817;28;20047;-58
2022/09/09 03:43:29;;;;;;;0.30;0.30;;;;;;;27.87;nan;99068.91;5092069;28;20071;-57
2022/09/09 03:45:57;;;;;;;0.10;0.10;;;;;;;27.89;nan;99074.09;5092079;28;20127;-56
2022/09/09 03:48:24;;;;;;;0.20;0.20;;;;;;;27.87;nan;99073.75;5091585;28;20416;-56
2022/09/09 03:50:51;;;;;;;0.10;0.10;;;;;;;27.86;nan;99070.16;5091833;28;20044;-58
2022/09/09 03:53:19;;;;;;;0.20;0.20;;;;;;;27.86;nan;99067.34;5091554;28;20044;-58
2022/09/09 03:55:47;;;;;;;0.10;0.10;;;;;;;27.84;nan;99069.75;5092000;28;20070;-56
2022/09/09 03:58:13;;;;;;;0.15;0.15;;;;;;;27.88;nan;99080.94;5091756;28;20583;-56
2022/09/09 04:00:42;;;;;;;0.30;0.20;;;;;;;27.86;nan;99084.19;5092065;28;20067;-58
2022/09/09 04:03:08;;;;;;;0.30;0.20;;;;;;;27.86;nan;99081.38;5091393;28;20056;-58
2022/09/09 04:05:34;;;;;;;0.30;0.30;;;;;;;27.85;nan;99079.78;5090223;28;20051;-56
2022/09/09 04:07:59;;;;;;;0.10;0.10;;;;;;;27.84;nan;99081.00;5091437;28;20040;-58
2022/09/09 04:10:25;;;;;;;0.28;0.20;;;;;;;27.82;nan;99080.66;5091539;28;20040;-56
2022/09/09 04:12:50;;;;;;;0.30;0.22;;;;;;;27.85;nan;99076.16;5091647;28;20044;-56
2022/09/09 04:15:18;;;;;;;0.30;0.30;;;;;;;27.85;nan;99087.41;5091653;28;20071;-58
2022/09/09 04:17:44;;;;;;;0.20;0.20;;;;;;;27.83;nan;99078.63;5091393;28;20040;-58
2022/09/09 04:20:11;;;;;;;0.22;0.20;;;;;;;27.84;nan;99080.22;5091251;28;20059;-56
2022/09/09 04:22:38;;;;;;;0.30;0.30;;;;;;;27.82;nan;99075.03;5091146;28;20040;-57
2022/09/09 04:25:05;;;;;;;1.23;0.20;;;;;;;27.82;nan;99075.03;5088545;28;20050;-57
2022/09/09 04:27:31;;;;;;;0.57;0.20;;;;;;;27.84;nan;99078.19;5091306;28;20093;-58
2022/09/09 04:29:57;;;;;;;1.38;0.40;;;;;;;27.83;nan;99079.41;5091026;28;20056;-58
2022/09/09 04:32:23;;;;;;;0.28;0.28;;;;;;;27.83;nan;99075.81;5091188;28;20416;-58
2022/09/09 04:34:48;;;;;;;0.20;0.20;;;;;;;27.82;nan;99086.28;5091345;28;20070;-58
2022/09/09 04:37:14;;;;;;;0.30;0.20;;;;;;;27.83;nan;99084.25;5090988;28;20484;-57
2022/09/09 04:39:39;;;;;;;0.63;0.32;;;;;;;27.82;nan;99083.47;5090896;28;20162;-57
2022/09/09 04:42:05;;;;;;;0.28;0.28;;;;;;;27.82;nan;99083.47;5091031;28;20059;-56
2022/09/09 04:44:30;;;;;;;0.20;0.20;;;;;;;27.83;nan;99087.84;5091096;28;20055;-58
2022/09/09 04:46:55;;;;;;;2.63;0.40;;;;;;;27.81;nan;99086.72;5090386;28;20519;-56
2022/09/09 04:49:21;;;;;;;0.20;0.20;;;;;;;27.84;nan;99089.44;5090874;28;20048;-56
2022/09/09 04:51:49;;;;;;;0.10;0.10;;;;;;;27.85;nan;99088.22;5090691;28;20036;-56
2022/09/09 04:54:14;;;;;;;0.20;0.20;;;;;;;27.84;nan;99077.41;5106583;28;20433;-56
2022/09/09 04:56:42;;;;;;;0.25;0.25;;;;;;;27.87;nan;99085.00;5090518;28;20539;-58
2022/09/09 04:59:07;;;;;;;0.30;0.20;;;;;;;27.84;nan;99092.25;5090993;28;20117;-56
2022/09/09 05:01:33;;;;;;;0.30;0.30;;;;;;;27.87;nan;99101.84;5090585;28;20426;-58
2022/09/09 05:03:58;;;;;;;0.20;0.20;;;;;;;27.87;nan;99094.22;5077552;28;20044;-58
2022/09/09 05:06:24;;;;;;;0.30;0.30;;;;;;;27.90;nan;99101.78;5090766;28;20036;-56
2022/09/09 05:08:51;;;;;;;0.20;0.20;;;;;;;27.90;nan;99104.59;5090292;28;20036;-57
2022/09/09 05:11:25;;;;;;;0.77;0.30;;;;;;;27.90;nan;99101.78;5090618;28;20337;-60
2022/09/09 05:13:51;;;;;;;9.98;0.65;;;;;;;27.93;nan;99108.53;5089962;28;20079;-59
2022/09/09 05:16:18;;;;;;;8.07;0.50;;;;;;;27.95;nan;99104.09;5090586;28;20048;-60
2022/09/09 05:18:44;;;;;;;1.02;0.28;;;;;;;27.95;nan;99109.72;5090343;28;20077;-57
2022/09/09 05:21:11;;;;;;;2.70;0.40;;;;;;;27.95;nan;99112.53;5090626;28;20040;-57
2022/09/09 05:23:37;;;;;;;4.85;0.50;;;;;;;27.97;nan;99124.13;5090307;28;20047;-57
2022/09/09 05:26:04;;;;;;;4.20;0.30;;;;;;;28.00;nan;99110.41;5090475;28;20130;-57
2022/09/09 05:28:30;;;;;;;1.05;0.28;;;;;;;27.98;nan;99114.47;5090186;28;20054;-56
2022/09/09 05:31:00;;;;;;;5.10;0.47;;;;;;;27.98;nan;99114.47;5090492;28;20036;-60
2022/09/09 05:33:26;;;;;;;3.55;0.40;;;;;;;28.03;nan;99115.19;5090131;28;20534;-60
2022/09/09 05:36:00;;;;;;;4.78;0.30;;;;;;;28.02;nan;99120.03;5089890;28;20067;-57
2022/09/09 05:38:25;;;;;;;4.93;0.30;;;;;;;28.03;nan;99134.88;5090272;28;20452;-56
2022/09/09 05:40:52;;;;;;;0.20;0.20;;;;;;;28.05;nan;99132.41;5089995;28;20533;-57
2022/09/09 05:43:19;;;;;;;3.65;0.50;;;;;;;28.02;nan;99136.09;5090064;28;20051;-56
2022/09/09 05:45:47;;;;;;;1.02;0.30;;;;;;;28.05;nan;99135.22;5090067;28;20044;-57
2022/09/09 05:48:15;;;;;;;0.82;0.30;;;;;;;28.05;nan;99138.03;5089915;28;20055;-57
2022/09/09 05:50:41;;;;;;;0.95;0.25;;;;;;;28.06;nan;99140.41;5089800;28;20101;-56
2022/09/09 05:53:06;;;;;;;0.57;0.30;;;;;;;28.06;nan;99139.63;5089783;28;20052;-60
2022/09/09 05:55:31;;;;;;;0.85;0.45;;;;;;;28.07;nan;99141.22;5089661;28;20690;-57
2022/09/09 05:57:57;;;;;;;1.08;0.50;;;;;;;28.07;nan;99141.22;5090201;28;20071;-59
2022/09/09 06:00:22;;;;;;;0.47;0.30;;;;;;;28.08;nan;99140.00;5089050;28;20127;-56
2022/09/09 06:02:52;;;;;;;0.55;0.20;;;;;;;27.98;nan;99139.75;5089827;28;20128;-60
2022/09/09 06:05:18;;;;;;;0.35;0.30;;;;;;;27.83;nan;99146.88;5089953;28;20052;-57
2022/09/09 06:07:44;;;;;;;0.50;0.32;;;;;;;27.73;nan;99142.25;5089775;28;20048;-59
2022/09/09 06:10:13;;;;;;;0.52;0.30;;;;;;;27.70;nan;99137.47;5088387;28;20391;-56
2022/09/09 06:12:38;;;;;;;0.45;0.30;;;;;;;27.66;nan;99122.69;5089362;28;20083;-56
2022/09/09 06:15:05;;;;;;;0.70;0.35;;;;;;;27.68;nan;99139.94;5089777;28;20063;-57
2022/09/09 06:17:30;;;;;;;0.68;0.30;;;;;;;27.66;nan;99148.75;5089690;28;20048;-60
2022/09/09 06:19:55;;;;;;;0.70;0.40;;;;;;;27.67;nan;99146.75;5089361;28;20081;-57
2022/09/09 06:22:21;;;;;;;0.30;0.30;;;;;;;27.65;nan;99147.19;5089289;28;20468;-59
2022/09/09 06:24:46;;;;;;;0.35;0.30;;;;;;;27.66;nan;99145.16;5079136;28;20036;-60
2022/09/09 06:27:13;;;;;;;0.90;0.38;;;;;;;27.65;nan;99154.81;5089461;28;20464;-60
2022/09/09 06:29:39;;;;;;;0.85;0.40;;;;;;;27.60;nan;99138.44;5089296;28;20097;-57
2022/09/09 06:32:04;;;;;;;0.50;0.43;;;;;;;27.57;nan;99139.28;5088894;28;20052;-59
2022/09/09 06:34:30;;;;;;;0.32;0.30;;;;;;;27.61;nan;99138.00;5089607;28;20044;-56
2022/09/09 06:36:57;;;;;;;0.43;0.35;;;;;;;27.61;nan;99140.03;5088896;28;20040;-59
2022/09/09 06:39:23;;;;;;;1.20;0.40;;;;;;;27.60;nan;99133.63;5075478;28;20052;-56
2022/09/09 06:41:49;;;;;;;0.75;0.38;;;;;;;27.57;nan;99147.72;5089126;28;20105;-56
2022/09/09 06:44:15;;;;;;;0.35;0.20;;;;;;;27.62;nan;99136.78;5088959;28;20040;-56
2022/09/09 06:46:40;;;;;;;0.50;0.40;;;;;;;27.57;nan;99150.53;5089212;28;20058;-59
2022/09/09 06:49:08;;;;;;;0.52;0.45;;;;;;;27.61;nan;99154.06;5088864;28;20035;-60
2022/09/09 06:51:35;;;;;;;0.90;0.40;;;;;;;27.63;nan;99157.25;5086376;28;20393;-57
2022/09/09 06:54:02;;;;;;;0.30;0.30;;;;;;;27.63;nan;99160.06;5079914;28;20075;-57
2022/09/09 06:56:29;;;;;;;0.30;0.30;;;;;;;27.63;nan;99158.03;5082717;28;20040;-57
2022/09/09 06:58:58;;;;;;;0.77;0.40;;;;;;;27.62;nan;99155.66;5079852;28;20072;-60
2022/09/09 07:01:27;;;;;;;0.80;0.50;;;;;;;27.65;nan;99157.63;5079750;28;20040;-61
2022/09/09 07:03:55;;;;;;;0.68;0.30;;;;;;;27.61;nan;99156.88;5082899;28;20453;-61
2022/09/09 07:06:25;;;;;;;1.35;0.38;;;;;;;27.59;nan;99153.72;5079587;28;20051;-58
2022/09/09 07:08:55;;;;;;;0.60;0.50;;;;;;;27.63;nan;99162.88;5083764;28;20544;-57
2022/09/09 07:11:23;;;;;;;0.65;0.30;;;;;;;27.66;nan;99159.22;5083721;28;20078;-60
2022/09/09 07:13:49;;;;;;;0.45;0.38;;;;;;;27.67;nan;99149.56;5081414;28;20032;-61
2022/09/09 07:16:17;;;;;;;0.50;0.50;;;;;;;27.66;nan;99145.16;5086959;28;20039;-61
2022/09/09 07:18:44;;;;;;;0.40;0.38;;;;;;;27.70;nan;99143.88;5085136;28;20048;-57
2022/09/09 07:21:14;;;;;;;0.70;0.50;;;;;;;27.66;nan;99143.16;5089799;28;20074;-58
2022/09/09 07:23:41;;;;;;;0.28;0.28;;;;;;;27.65;nan;99150.00;5088759;28;20047;-57
2022/09/09 07:26:15;;;;;;;1.08;0.52;;;;;;;27.64;nan;99156.03;5091078;28;20055;-57
2022/09/09 07:28:41;;;;;;;0.40;0.40;;;;;;;27.63;nan;99152.41;5088755;28;20040;-61
2022/09/09 07:31:15;;;;;;;0.85;0.50;;;;;;;27.66;nan;99156.41;5088797;28;20040;-61
2022/09/09 07:33:40;;;;;;;0.50;0.43;;;;;;;27.67;nan;99152.38;5089688;28;20043;-58
2022/09/09 07:36:09;;;;;;;0.60;0.40;;;;;;;27.72;nan;99146.28;5079870;28;20555;-58
2022/09/09 07:38:45;;;;;;;0.85;0.50;;;;;;;27.49;nan;99149.06;5073543;28;20043;-62
2022/09/09 07:41:30;;;;;;;1.35;0.50;;;;;;;27.26;nan;99147.03;5090669;28;20052;-58
2022/09/09 07:43:56;;;;;;;5.97;0.90;;;;;;;27.25;nan;99151.84;5094262;28;20486;-62
2022/09/09 07:46:23;;;;;;;4.07;1.05;;;;;;;27.25;nan;99148.25;5097781;28;20597;-62
2022/09/09 07:48:53;;;;;;;5.05;1.60;;;;;;;27.32;nan;99154.56;5097055;28;20131;-62
2022/09/09 07:51:34;;;;;;;7.68;1.45;;;;;;;27.36;nan;99158.09;5097487;28;20125;-62
2022/09/09 07:54:03;;;;;;;6.50;1.70;;;;;;;27.15;nan;99152.84;5097855;28;20052;-62
2022/09/09 07:56:30;;;;;;;4.50;1.35;;;;;;;27.00;nan;99149.38;5096023;28;20523;-62
2022/09/09 07:58:57;;;;;;;4.95;1.40;;;;;;;27.02;nan;99151.78;5087751;28;20061;-58
2022/09/09 08:01:39;;;;;;;3.13;1.60;;;;;;;27.02;nan;99151.78;5085407;28;20074;-62
2022/09/09 08:04:25;;;;;;;4.20;1.87;;;;;;;27.04;nan;99141.75;5086755;28;20052;-62
2022/09/09 08:06:55;;;;;;;7.95;1.63;;;;;;;27.08;nan;99142.50;5080364;28;20339;-62
2022/09/09 08:09:21;;;;;;;7.70;1.55;;;;;;;27.15;nan;99153.63;5084974;28;20051;-62
2022/09/09 08:11:47;;;;;;;5.13;1.92;;;;;;;27.20;nan;99148.72;5087147;28;20067;-62
2022/09/09 08:14:13;;;;;;;5.63;2.13;;;;;;;27.20;nan;99141.09;5082619;28;20068;-63
2022/09/09 08:16:41;;;;;;;5.35;1.60;;;;;;;27.15;nan;99141.59;5084706;28;20090;-63
2022/09/09 08:19:07;;;;;;;4.78;1.80;;;;;;;26.84;nan;99144.41;5086840;28;20084;-63
2022/09/09 08:21:36;;;;;;;4.82;1.45;;;;;;;26.60;nan;99146.34;5086855;28;20071;-62
2022/09/09 08:24:03;;;;;;;2.63;1.52;;;;;;;26.54;nan;99148.03;5097474;28;20527;-64
2022/09/09 08:26:30;;;;;;;2.35;1.20;;;;;;;26.53;nan;99152.06;5096654;28;20465;-65
2022/09/09 08:28:58;;;;;;;3.47;1.60;;;;;;;26.35;nan;99145.81;5095705;28;20048;-65
2022/09/09 08:31:28;;;;;;;3.78;1.55;;;;;;;26.15;nan;99156.91;5096965;28;20991;-64
2022/09/09 08:33:55;;;;;;;3.30;1.60;;;;;;;26.16;nan;99163.28;5086532;28;20039;-65
2022/09/09 08:36:25;;;;;;;3.20;1.52;;;;;;;26.27;nan;99161.94;5086587;28;20116;-58
2022/09/09 08:38:56;;;;;;;2.63;1.30;;;;;;;26.24;nan;99154.38;5085497;28;20036;-58
2022/09/09 08:42:02;;;;;;;4.00;1.55;;;;;;;26.08;nan;99150.56;5083583;28;20059;-63
2022/09/09 08:44:55;;;;;;;2.88;1.42;;;;;;;26.06;nan;99157.38;5085024;28;20048;-64
2022/09/09 08:47:42;;;;;;;4.10;1.42;;;;;;;26.20;nan;99159.22;5076086;28;20512;-64
2022/09/09 08:50:48;;;;;;;2.00;1.20;;;;;;;26.11;nan;99158.94;5088704;28;20164;-63
2022/09/09 08:53:24;;;;;;;2.20;1.27;;;;;;;25.97;nan;99157.06;5016233;28;20046;-64
2022/09/09 08:56:18;;;;;;;1.85;1.00;;;;;;;26.03;nan;99154.63;5018159;28;20569;-59
2022/09/09 08:58:48;;;;;;;2.03;1.25;;;;;;;26.17;nan;99156.47;5020847;28;21898;-66
2022/09/09 09:01:35;;;;;;;1.77;1.08;;;;;;;26.14;nan;99158.09;5018598;28;20527;-59
2022/09/09 09:04:33;;;;;;;1.80;1.23;;;;;;;26.03;nan;99151.81;5017839;28;20065;-65
2022/09/09 09:07:26;;;;;;;4.35;1.15;;;;;;;26.19;nan;99138.00;5009908;28;20437;-65
2022/09/09 09:10:11;;;;;;;3.22;1.20;;;;;;;26.14;nan;99146.88;5018459;28;20076;-58
2022/09/09 09:12:44;;;;;;;2.60;1.50;;;;;;;25.94;nan;99137.50;5019495;28;20041;-66
2022/09/09 09:15:24;;;;;;;2.05;1.25;;;;;;;26.01;nan;99141.03;5018038;28;20049;-60
2022/09/09 09:17:50;;;;;;;5.43;1.15;;;;;;;26.08;nan;99142.97;5016885;28;20160;-64
2022/09/09 09:20:21;;;;;;;5.35;2.22;;;;;;;25.87;nan;99140.38;5017779;28;20202;-63
2022/09/09 09:22:51;;;;;;;10.98;3.75;;;;;;;25.75;nan;99131.28;5017772;28;20107;-59
2022/09/09 09:25:17;;;;;;;5.60;3.78;;;;;;;25.86;nan;99136.78;5095117;28;20089;-59
2022/09/09 09:28:00;;;;;;;4.75;3.13;;;;;;;25.97;nan;99136.66;5095841;28;20040;-58
2022/09/09 09:30:31;;;;;;;7.22;2.90;;;;;;;25.77;nan;99128.06;5085006;28;20048;-68
2022/09/09 09:33:14;;;;;;;4.70;2.15;;;;;;;25.83;nan;99126.41;5091091;28;20082;-62
2022/09/09 09:35:39;;;;;;;2.97;1.40;;;;;;;26.17;nan;99120.03;5091831;28;20051;-64
2022/09/09 09:38:19;;;;;;;6.68;1.20;;;;;;;26.33;nan;99123.81;5086041;28;20064;-58
2022/09/09 09:40:57;;;;;;;2.22;1.00;;;;;;;26.43;nan;99113.69;5081828;28;20125;-58
2022/09/09 09:43:40;;;;;;;2.95;1.05;;;;;;;26.58;nan;99125.56;5080753;28;20146;-58
2022/09/09 09:46:17;;;;;;;;;;;;;;;26.67;nan;99128.63;5085533;28;20504;-64
2022/09/09 09:48:45;;;;;;;6.78;3.22;;;;;;;26.71;nan;99123.75;5081765;28;19959;-58
2022/09/09 09:51:15;;;;;;;10.18;4.28;;;;;;;26.75;nan;99115.28;5085887;28;20074;-58
2022/09/09 09:53:41;;;;;;;7.68;3.53;;;;;;;26.88;nan;99111.47;5100884;28;20051;-58
2022/09/09 09:56:11;;;;;;;6.70;3.40;;;;;;;26.99;nan;99116.13;5079076;28;20043;-60
2022/09/09 09:58:45;;;;;;;8.30;3.25;;;;;;;27.10;nan;99120.41;5084951;28;20452;-57
2022/09/09 10:01:27;;;;;;;8.30;2.95;;;;;;;27.21;nan;99117.41;5080669;28;20518;-59
2022/09/09 10:04:18;;;;;;;7.93;2.77;;;;;;;27.26;nan;99121.75;5079226;28;20048;-58
2022/09/09 10:06:44;;;;;;;6.10;2.15;;;;;;;27.26;nan;99114.13;5080858;28;20044;-58
2022/09/09 10:09:24;;;;;;;8.38;1.80;;;;;;;27.28;nan;99111.69;5085027;28;20401;-62
2022/09/09 10:12:09;;;;;;;4.38;1.83;;;;;;;27.32;nan;99103.22;5086281;28;20462;-58
2022/09/09 10:15:11;;;;;;;5.95;1.70;;;;;;;27.32;nan;99097.59;5075339;28;20598;-63
2022/09/09 10:17:39;;;;;;;3.10;1.48;;;;;;;27.34;nan;99095.94;5083544;28;20044;-63
2022/09/09 10:20:10;;;;;;;2.90;1.40;;;;;;;27.34;nan;99098.75;5084510;28;20048;-63
2022/09/09 10:22:38;;;;;;;5.07;1.30;;;;;;;27.33;nan;99094.34;5084784;28;20043;-63
2022/09/09 10:25:22;;;;;;;2.65;1.23;;;;;;;27.39;nan;99095.44;5078694;28;20592;-63
2022/09/09 10:28:00;;;;;;;2.63;1.15;;;;;;;27.38;nan;99096.69;5085189;28;20052;-59
2022/09/09 10:31:04;;;;;;;2.40;1.30;;;;;;;27.42;nan;99090.97;5083520;28;20122;-58
2022/09/09 10:33:44;;;;;;;2.08;1.20;;;;;;;27.40;nan;99090.63;5016505;28;20062;-59
2022/09/09 10:36:23;;;;;;;2.15;1.25;;;;;;;27.48;nan;99097.69;5010525;28;20058;-63
2022/09/09 10:39:20;;;;;;;2.55;1.00;;;;;;;27.47;nan;99092.53;5024986;28;20449;-63
2022/09/09 10:41:59;;;;;;;1.40;0.93;;;;;;;27.49;nan;99099.28;5024568;28;20068;-56
2022/09/09 10:44:48;;;;;;;1.95;0.80;;;;;;;27.49;nan;99092.88;5025329;28;20048;-63
2022/09/09 10:47:50;;;;;;;1.33;0.80;;;;;;;27.46;nan;99086.09;5025002;28;20755;-58
2022/09/09 10:50:38;;;;;;;1.67;0.83;;;;;;;27.49;nan;99076.81;5023347;28;20045;-63
2022/09/09 10:53:20;;;;;;;1.23;0.80;;;;;;;27.55;nan;99093.97;5020583;28;20303;-58
2022/09/09 10:55:52;;;;;;;1.65;0.63;;;;;;;27.53;nan;99085.97;5020237;28;20601;-59
2022/09/09 10:58:28;;;;;;;2.90;0.60;;;;;;;27.56;nan;99092.75;5022560;28;20045;-63
2022/09/09 11:01:02;;;;;;;1.35;0.70;;;;;;;27.59;nan;99084.28;5020582;28;20068;-62
2022/09/09 11:03:29;;;;;;;1.50;0.73;;;;;;;27.61;nan;99076.19;5028673;28;20040;-58
2022/09/09 11:06:04;;;;;;;1.13;0.60;;;;;;;27.65;nan;99090.19;5085183;28;20126;-63
2022/09/09 11:08:33;;;;;;;1.20;0.52;;;;;;;27.65;nan;99073.34;5079863;28;20106;-58
2022/09/09 11:11:03;;;;;;;1.58;0.70;;;;;;;27.64;nan;99072.50;5079605;28;20049;-58
2022/09/09 11:13:43;;;;;;;0.75;0.50;;;;;;;27.66;nan;99078.50;5085155;28;20051;-58
2022/09/09 11:16:28;;;;;;;1.08;0.55;;;;;;;27.67;nan;99076.50;5081563;28;20129;-58
2022/09/09 11:19:02;;;;;;;0.90;0.50;;;;;;;27.64;nan;99066.91;5072380;28;20086;-62
2022/09/09 11:21:40;;;;;;;0.60;0.47;;;;;;;27.65;nan;99065.69;5077545;28;20083;-62
2022/09/09 11:24:22;;;;;;;0.82;0.40;;;;;;;27.69;nan;99074.06;5082938;28;20044;-58
2022/09/09 11:27:20;;;;;;;0.80;0.50;;;;;;;27.68;nan;99061.25;5083843;28;20040;-62
2022/09/09 11:30:12;;;;;;;0.47;0.40;;;;;;;27.69;nan;99065.66;5023069;28;20042;-63
2022/09/09 11:32:56;;;;;;;1.03;0.43;;;;;;;27.56;nan;99062.63;4998011;28;20184;-61
2022/09/09 11:35:42;;;;;;;0.80;0.40;;;;;;;27.18;nan;99064.91;4998965;28;20115;-64
2022/09/09 11:38:40;;;;;;;1.88;0.38;;;;;;;26.86;nan;99063.41;4999694;28;20112;-62
2022/09/09 11:41:09;;;;;;;0.40;0.22;;;;;;;26.79;nan;99063.53;4989286;28;20058;-64
2022/09/09 11:43:46;;;;;;;0.85;0.40;;;;;;;26.68;nan;99068.47;4996893;28;20084;-64
2022/09/09 11:46:15;;;;;;;2.42;0.52;;;;;;;26.49;nan;99066.34;5003121;28;20050;-64
2022/09/09 11:48:45;;;;;;;0.50;0.47;;;;;;;26.43;nan;99068.81;5013399;28;20125;-58
2022/09/09 11:51:28;;;;;;;1.02;0.60;;;;;;;26.45;nan;99072.03;4997466;28;20073;-58
2022/09/09 11:53:55;;;;;;;0.93;0.47;;;;;;;26.38;nan;99082.50;4993458;28;20758;-59
2022/09/09 11:56:34;;;;;;;1.08;0.52;;;;;;;26.22;nan;99095.13;4989300;28;20529;-64
2022/09/09 11:59:19;;;;;;;1.38;0.40;;;;;;;26.24;nan;99087.09;4999758;28;20045;-64
2022/09/09 12:01:45;;;;;;;0.80;0.40;;;;;;;26.30;nan;99093.81;5007200;28;20084;-66
2022/09/09 12:04:29;;;;;;;0.82;0.30;;;;;;;26.20;nan;99091.94;5004965;28;20041;-64
2022/09/09 12:07:02;;;;;;;0.77;0.50;;;;;;;26.11;nan;99086.03;5070992;28;20059;-58
2022/09/09 12:09:31;;;;;;;0.50;0.40;;;;;;;26.22;nan;99092.34;5090671;28;20044;-67
2022/09/09 12:12:11;;;;;;;0.60;0.40;;;;;;;26.22;nan;99086.72;5090374;28;20423;-65
2022/09/09 12:14:37;;;;;;;0.40;0.38;;;;;;;26.07;nan;99085.28;5090072;28;20414;-64
2022/09/09 12:17:14;;;;;;;0.40;0.30;;;;;;;26.14;nan;99082.41;5091018;28;20036;-64
2022/09/09 12:19:39;;;;;;;0.93;0.45;;;;;;;26.17;nan;99078.78;5088413;28;20489;-65